Portada
METAR-TAF:

METAR-TAF

Aeroports :

Shelby County Airport

Alabaster, Alabama, Estats Units d'Amèrica

latitud: 33-10-42N, longitud: 086-46-54W, altitud: 178 m

Observació

L'informe es va fer fa 16 minuts, a les 08:53 UTC
Vent 4 kt del Est
Temperatura -3°C
Humitat 68%
Pressió 1028 hPa
Visibilitat: 16.1 km
Cel clar

METAR: KEET 220853Z AUTO 08004KT 10SM CLR M03/M08 A3037 RMK AO2 SLP287 T10281083 56009

Hora: 03:09 (09:09 UTC)

Pronòstic

L'informe es va fer fa 3 hores i 36 minuts, a les 05:33 UTC
Pronòstic vàlid del 22 a les 06 UTC al 23 a les 06 UTC
Vent kt del Nord
Visibilitat: 10 km
Cel clar
A partir de les 22 a les 1700 UTC
Vent 6 kt del Sud-Est
Visibilitat: 10 km
Cel ennuvolat a una alçada de 25000 ft
A partir de les 23 a les 0000 UTC
Vent kt del Nord
Visibilitat: 10 km
Cel cobert a una alçada de 25000 ft

TAF: KEET 220533Z 2206/2306 00000KT P6SM SKC FM221700 14006KT P6SM BKN250 FM230000 00000KT P6SM OVC250

Observacions i pronòstics meteorològics de més de 4000 aeroports (METAR i TAF).

Les estacions disponibles són els punts grocs i vermells al mapa.

Posi el ratolí al punt desitjat per veure el nom de l'estació.

Feu clic per veure les observacions i els pronòstics meteorològics.

Per canviar el mapa: feu clic els botons verds amb una creu de color negre per apropar; al botó verd amb un guió per allunyar la imatge; o en les fletxes verdes per a mapes adjacents.


METAR-TAF: